createdAt,value
2017-05-14T00:01:37.114Z,11.20
2017-05-14T00:04:07.871Z,11.00
2017-05-14T00:06:38.849Z,11.00
2017-05-14T00:09:09.438Z,11.20
2017-05-14T00:11:41.278Z,11.00
2017-05-14T00:14:12.393Z,10.80
2017-05-14T00:16:43.042Z,10.70
2017-05-14T00:19:14.147Z,10.70
2017-05-14T00:21:44.648Z,10.90
2017-05-14T00:24:15.546Z,11.20
2017-05-14T00:26:46.383Z,11.30
2017-05-14T00:29:16.395Z,11.10
2017-05-14T00:31:46.900Z,11.10
2017-05-14T00:34:17.746Z,11.10
2017-05-14T00:36:48.302Z,11.20
2017-05-14T00:39:19.149Z,11.20
2017-05-14T00:41:49.961Z,11.40
2017-05-14T00:44:21.508Z,11.40
2017-05-14T00:46:52.029Z,11.30
2017-05-14T00:49:22.586Z,11.20
2017-05-14T00:51:53.467Z,11.00
2017-05-14T00:54:24.635Z,11.00
2017-05-14T00:56:55.461Z,10.80
2017-05-14T00:59:26.619Z,10.60
2017-05-14T01:01:57.520Z,10.40
2017-05-14T01:04:28.352Z,10.50
2017-05-14T01:06:59.199Z,10.60
2017-05-14T01:09:30.201Z,10.70
2017-05-14T01:12:02.646Z,10.70
2017-05-14T01:14:33.532Z,10.70
2017-05-14T01:17:04.394Z,10.70
2017-05-14T01:19:35.299Z,10.60
2017-05-14T01:22:05.804Z,10.50
2017-05-14T01:24:36.433Z,10.60
2017-05-14T01:27:06.864Z,10.70
2017-05-14T01:29:38.560Z,10.70
2017-05-14T01:32:09.390Z,10.70
2017-05-14T01:34:40.024Z,10.70
2017-05-14T01:37:10.752Z,10.80
2017-05-14T01:39:41.841Z,10.80
2017-05-14T01:42:12.764Z,10.80
2017-05-14T01:44:43.812Z,10.90
2017-05-14T01:47:14.361Z,11.00
2017-05-14T01:49:45.169Z,10.80
2017-05-14T01:52:16.069Z,10.50
2017-05-14T01:54:47.028Z,10.30
2017-05-14T01:57:17.772Z,10.10
2017-05-14T01:59:48.653Z,9.80
2017-05-14T02:02:19.445Z,9.70
2017-05-14T02:04:50.129Z,9.80
2017-05-14T02:07:20.747Z,9.90
2017-05-14T02:09:51.258Z,10.10
2017-05-14T02:12:22.658Z,10.30
2017-05-14T02:14:53.684Z,10.50
2017-05-14T02:17:24.591Z,10.50
2017-05-14T02:19:55.406Z,10.70
2017-05-14T02:22:26.414Z,10.70
2017-05-14T02:24:57.216Z,10.80
2017-05-14T02:27:27.864Z,10.70
2017-05-14T02:29:59.657Z,10.50
2017-05-14T02:32:30.707Z,10.50
2017-05-14T02:35:01.705Z,10.40
2017-05-14T02:37:32.382Z,10.40
2017-05-14T02:40:03.303Z,10.20
2017-05-14T02:42:34.125Z,10.00
2017-05-14T02:45:05.725Z,9.80
2017-05-14T02:47:36.650Z,9.80
2017-05-14T02:50:07.627Z,9.60
2017-05-14T02:52:38.201Z,9.50
2017-05-14T02:55:09.078Z,9.50
2017-05-14T02:57:39.858Z,9.40
2017-05-14T03:00:10.539Z,9.30
2017-05-14T03:02:41.250Z,9.30
2017-05-14T03:05:11.833Z,9.40
2017-05-14T03:07:42.545Z,9.50
2017-05-14T03:10:13.374Z,9.60
2017-05-14T03:12:45.194Z,9.60
2017-05-14T03:15:15.924Z,9.70
2017-05-14T03:17:47.766Z,9.70
2017-05-14T03:20:18.344Z,9.70
2017-05-14T03:22:48.880Z,9.60
2017-05-14T03:25:19.864Z,9.60
2017-05-14T03:27:50.423Z,9.60
2017-05-14T03:30:21.335Z,9.70
2017-05-14T03:32:52.260Z,9.80
2017-05-14T03:35:23.193Z,9.80
2017-05-14T03:37:53.791Z,9.90
2017-05-14T03:40:24.328Z,10.00
2017-05-14T03:42:54.992Z,9.90
2017-05-14T03:45:25.888Z,9.90
2017-05-14T03:47:56.524Z,9.90
2017-05-14T03:50:27.436Z,9.90
2017-05-14T03:52:58.487Z,10.00
2017-05-14T03:55:29.120Z,10.00
2017-05-14T03:57:59.820Z,9.80
2017-05-14T04:00:31.616Z,9.50
2017-05-14T04:03:02.488Z,9.30
2017-05-14T04:05:33.470Z,9.10
2017-05-14T04:08:04.308Z,8.60
2017-05-14T04:10:35.124Z,8.60
2017-05-14T04:13:06.997Z,8.60
2017-05-14T04:15:37.822Z,8.70
2017-05-14T04:18:08.329Z,8.70
2017-05-14T04:20:39.106Z,8.40
2017-05-14T04:23:09.739Z,8.40
2017-05-14T04:25:40.705Z,8.30
2017-05-14T04:28:10.850Z,8.20
2017-05-14T04:30:41.687Z,8.00
2017-05-14T04:33:12.172Z,8.00
2017-05-14T04:35:42.905Z,8.10
2017-05-14T04:38:13.684Z,8.40
2017-05-14T04:40:44.459Z,8.20
2017-05-14T04:43:15.225Z,8.20
2017-05-14T04:45:46.415Z,8.00
2017-05-14T04:48:17.135Z,8.10
2017-05-14T04:50:48.358Z,8.10
2017-05-14T04:53:19.061Z,8.20
2017-05-14T04:55:50.029Z,8.20
2017-05-14T04:58:21.159Z,8.20
2017-05-14T05:00:52.272Z,8.30
2017-05-14T05:03:23.080Z,8.40
2017-05-14T05:05:54.137Z,8.30
2017-05-14T05:08:24.857Z,8.30
2017-05-14T05:10:55.690Z,8.30
2017-05-14T05:13:27.502Z,8.30
2017-05-14T05:15:59.281Z,8.40
2017-05-14T05:18:31.238Z,8.50
2017-05-14T05:21:02.470Z,8.50
2017-05-14T05:23:33.452Z,8.80
2017-05-14T05:26:04.507Z,8.70
2017-05-14T05:28:36.417Z,8.70
2017-05-14T05:31:07.643Z,8.80
2017-05-14T05:33:38.717Z,8.90
2017-05-14T05:36:09.309Z,9.00
2017-05-14T05:38:47.622Z,9.10
2017-05-14T05:41:18.566Z,9.00
2017-05-14T05:43:49.461Z,9.20
2017-05-14T05:46:20.572Z,9.00
2017-05-14T05:48:51.232Z,9.00
2017-05-14T05:51:22.182Z,9.10
2017-05-14T05:53:53.031Z,9.10
2017-05-14T05:56:24.308Z,9.10
2017-05-14T05:58:55.179Z,9.10
2017-05-14T06:01:25.917Z,9.10
2017-05-14T06:03:56.963Z,9.20
2017-05-14T06:06:27.747Z,9.10
2017-05-14T06:08:58.419Z,9.20
2017-05-14T06:11:29.301Z,9.20
2017-05-14T06:14:01.107Z,9.10
2017-05-14T06:16:31.972Z,9.20
2017-05-14T06:19:02.523Z,9.20
2017-05-14T06:21:33.391Z,9.30
2017-05-14T06:24:03.503Z,9.40
2017-05-14T06:26:34.350Z,9.40
2017-05-14T06:29:05.202Z,9.30
2017-05-14T06:31:36.227Z,9.30
2017-05-14T06:34:06.535Z,9.40
2017-05-14T06:36:37.484Z,9.40
2017-05-14T06:39:08.242Z,9.50
2017-05-14T06:41:39.269Z,9.60
2017-05-14T06:44:09.903Z,9.70
2017-05-14T06:46:40.520Z,9.60
2017-05-14T06:49:11.262Z,9.80
2017-05-14T06:51:41.807Z,9.80
2017-05-14T06:54:12.623Z,9.80
2017-05-14T06:56:43.611Z,9.70
2017-05-14T06:59:14.240Z,9.60
2017-05-14T07:01:45.057Z,9.70
2017-05-14T07:04:15.862Z,9.60
2017-05-14T07:06:45.974Z,9.50
2017-05-14T07:09:16.730Z,9.40
2017-05-14T07:11:48.351Z,9.40
2017-05-14T07:14:19.611Z,9.30
2017-05-14T07:16:50.329Z,9.30
2017-05-14T07:19:21.054Z,9.20
2017-05-14T07:21:51.636Z,9.20
2017-05-14T07:24:22.341Z,9.30
2017-05-14T07:26:53.351Z,9.60
2017-05-14T07:29:24.169Z,9.40
2017-05-14T07:31:54.925Z,9.40
2017-05-14T07:34:25.482Z,9.30
2017-05-14T07:36:56.237Z,9.30
2017-05-14T07:39:27.184Z,9.20
2017-05-14T07:41:57.868Z,9.20
2017-05-14T07:44:28.560Z,9.20
2017-05-14T07:46:59.356Z,9.20
2017-05-14T07:49:29.861Z,9.20
2017-05-14T07:52:00.690Z,9.20
2017-05-14T07:54:31.117Z,9.20
2017-05-14T07:57:01.837Z,9.20
2017-05-14T07:59:32.655Z,9.20
2017-05-14T08:02:03.498Z,9.30
2017-05-14T08:04:33.986Z,9.30
2017-05-14T08:07:04.783Z,9.30
2017-05-14T08:09:35.610Z,9.30
2017-05-14T08:12:06.281Z,9.30
2017-05-14T08:14:37.561Z,9.30
2017-05-14T08:17:08.500Z,9.30
2017-05-14T08:19:39.018Z,9.30
2017-05-14T08:22:09.377Z,9.40
2017-05-14T08:24:40.418Z,9.20
2017-05-14T08:27:11.134Z,9.20
2017-05-14T08:29:41.976Z,9.20
2017-05-14T08:32:12.770Z,9.10
2017-05-14T08:34:43.823Z,9.20
2017-05-14T08:37:14.276Z,9.10
2017-05-14T08:39:45.933Z,9.00
2017-05-14T08:42:16.564Z,9.00
2017-05-14T08:44:47.376Z,9.00
2017-05-14T08:47:18.155Z,9.10
2017-05-14T08:49:48.810Z,9.10
2017-05-14T08:52:19.385Z,9.10
2017-05-14T08:54:50.354Z,9.10
2017-05-14T08:57:21.073Z,9.10
2017-05-14T08:59:52.144Z,9.00
2017-05-14T09:02:22.778Z,8.90
2017-05-14T09:04:53.483Z,8.90
2017-05-14T09:07:24.415Z,8.90
2017-05-14T09:09:55.317Z,9.00
2017-05-14T09:12:26.311Z,9.10
2017-05-14T09:14:58.350Z,9.00
2017-05-14T09:17:29.878Z,9.00
2017-05-14T09:20:00.820Z,9.00
2017-05-14T09:22:31.736Z,8.90
2017-05-14T09:25:02.321Z,9.10
2017-05-14T09:27:33.091Z,9.00
2017-05-14T09:30:03.704Z,9.00
2017-05-14T09:32:34.565Z,8.90
2017-05-14T09:35:05.268Z,9.00
2017-05-14T09:37:36.190Z,9.00
2017-05-14T09:40:08.023Z,9.20
2017-05-14T09:42:38.430Z,9.10
2017-05-14T09:45:08.916Z,9.20
2017-05-14T09:47:39.685Z,9.30
2017-05-14T09:50:10.411Z,9.20
2017-05-14T09:52:41.331Z,9.10
2017-05-14T09:55:12.253Z,9.10
2017-05-14T09:57:42.922Z,9.10
2017-05-14T10:00:13.422Z,9.10
2017-05-14T10:02:44.236Z,9.10
2017-05-14T10:05:16.015Z,9.10
2017-05-14T10:07:47.082Z,9.40
2017-05-14T10:10:17.877Z,9.10
2017-05-14T10:12:48.556Z,9.20
2017-05-14T10:15:20.300Z,9.20
2017-05-14T10:17:51.387Z,9.40
2017-05-14T10:20:22.063Z,9.20
2017-05-14T10:22:53.021Z,9.10
2017-05-14T10:25:23.849Z,9.10
2017-05-14T10:27:54.699Z,9.10
2017-05-14T10:30:25.410Z,9.00
2017-05-14T10:32:56.333Z,9.10
2017-05-14T10:35:27.095Z,9.00
2017-05-14T10:37:58.146Z,9.00
2017-05-14T10:40:28.676Z,9.00
2017-05-14T10:42:59.506Z,9.10
2017-05-14T10:45:30.235Z,9.10
2017-05-14T10:48:00.839Z,9.10
2017-05-14T10:50:31.505Z,9.10
2017-05-14T10:53:02.448Z,9.20
2017-05-14T10:55:33.084Z,9.10
2017-05-14T10:58:03.725Z,9.10
2017-05-14T11:00:34.195Z,9.10
2017-05-14T11:03:05.273Z,9.10
2017-05-14T11:05:36.051Z,9.10
2017-05-14T11:08:06.665Z,9.10
2017-05-14T11:10:37.491Z,9.00
2017-05-14T11:13:07.961Z,9.10
2017-05-14T11:15:39.679Z,9.40
2017-05-14T11:18:10.019Z,9.20
2017-05-14T11:20:40.643Z,9.20
2017-05-14T11:23:11.308Z,9.10
2017-05-14T11:25:43.043Z,9.10
2017-05-14T11:28:13.640Z,9.10
2017-05-14T11:30:44.400Z,9.10
2017-05-14T11:33:15.089Z,9.10
2017-05-14T11:35:53.080Z,9.20
2017-05-14T11:38:23.969Z,9.20
2017-05-14T11:40:54.768Z,9.30
2017-05-14T11:43:25.668Z,9.30
2017-05-14T11:45:56.458Z,9.40
2017-05-14T11:48:27.400Z,9.40
2017-05-14T11:50:58.225Z,9.40
2017-05-14T11:53:30.518Z,9.30
2017-05-14T11:56:01.016Z,9.40
2017-05-14T11:58:31.904Z,9.40
2017-05-14T12:01:02.704Z,9.30
2017-05-14T12:03:33.428Z,9.30
2017-05-14T12:06:04.560Z,9.30
2017-05-14T12:08:35.120Z,9.30
2017-05-14T12:11:06.185Z,9.30
2017-05-14T12:13:36.841Z,9.40
2017-05-14T12:16:08.372Z,9.30
2017-05-14T12:18:39.180Z,9.40
2017-05-14T12:21:09.670Z,9.20
2017-05-14T12:23:40.520Z,9.20
2017-05-14T12:26:11.398Z,9.20
2017-05-14T12:28:42.394Z,9.30
2017-05-14T12:31:13.358Z,9.20
2017-05-14T12:33:43.871Z,9.20
2017-05-14T12:36:14.614Z,9.40
2017-05-14T12:38:45.267Z,9.20
2017-05-14T12:41:16.112Z,9.20
2017-05-14T12:43:46.923Z,9.20
2017-05-14T12:46:17.556Z,9.20
2017-05-14T12:48:48.371Z,9.20
2017-05-14T12:51:20.040Z,9.20
2017-05-14T12:53:50.809Z,9.20
2017-05-14T12:56:21.416Z,9.20
2017-05-14T12:58:52.499Z,9.30
2017-05-14T13:01:23.306Z,9.20
2017-05-14T13:03:54.209Z,9.10
2017-05-14T13:06:24.870Z,9.20
2017-05-14T13:08:55.515Z,9.30
2017-05-14T13:11:26.480Z,9.30
2017-05-14T13:13:57.507Z,9.30
2017-05-14T13:16:28.664Z,9.20
2017-05-14T13:18:59.211Z,9.30
2017-05-14T13:21:30.107Z,9.20
2017-05-14T13:24:00.601Z,9.20
2017-05-14T13:26:31.149Z,9.20
2017-05-14T13:29:02.264Z,9.20
2017-05-14T13:31:33.203Z,9.30
2017-05-14T13:34:03.802Z,9.40
2017-05-14T13:36:34.708Z,9.40
2017-05-14T13:39:05.656Z,9.40
2017-05-14T13:41:36.504Z,9.40
2017-05-14T13:44:07.036Z,9.30
2017-05-14T13:46:37.755Z,9.40
2017-05-14T13:49:08.611Z,9.30
2017-05-14T13:51:39.498Z,9.30
2017-05-14T13:54:10.511Z,9.50
2017-05-14T13:56:40.974Z,9.40
2017-05-14T13:59:10.952Z,9.50
2017-05-14T14:01:41.558Z,9.50
2017-05-14T14:04:12.624Z,9.50
2017-05-14T14:06:43.335Z,9.40
2017-05-14T14:09:14.214Z,9.50
2017-05-14T14:11:45.358Z,9.60
2017-05-14T14:14:16.829Z,9.50
2017-05-14T14:16:48.662Z,9.50
2017-05-14T14:19:19.177Z,9.40
2017-05-14T14:21:49.794Z,9.50
2017-05-14T14:24:20.750Z,9.60
2017-05-14T14:26:52.078Z,9.60
2017-05-14T14:29:22.833Z,9.70
2017-05-14T14:31:53.524Z,9.80
2017-05-14T14:34:24.173Z,9.70
2017-05-14T14:36:54.731Z,9.70
2017-05-14T14:39:25.412Z,9.80
2017-05-14T14:41:55.972Z,9.70
2017-05-14T14:44:26.572Z,9.80
2017-05-14T14:46:57.296Z,9.90
2017-05-14T14:49:28.546Z,10.00
2017-05-14T14:51:59.372Z,9.90
2017-05-14T14:54:30.898Z,9.80
2017-05-14T14:57:01.455Z,10.00
2017-05-14T14:59:32.624Z,10.10
2017-05-14T15:02:03.505Z,10.20
2017-05-14T15:04:34.293Z,10.40
2017-05-14T15:07:05.347Z,10.50
2017-05-14T15:09:36.029Z,10.60
2017-05-14T15:12:06.455Z,10.70
2017-05-14T15:14:38.424Z,10.80
2017-05-14T15:17:09.932Z,10.60
2017-05-14T15:19:40.680Z,10.60
2017-05-14T15:22:11.510Z,10.50
2017-05-14T15:24:42.368Z,10.60
2017-05-14T15:27:13.162Z,10.80
2017-05-14T15:29:44.092Z,10.80
2017-05-14T15:32:14.845Z,11.00
2017-05-14T15:34:45.523Z,11.20
2017-05-14T15:37:15.946Z,11.40
2017-05-14T15:39:46.696Z,11.40
2017-05-14T15:42:17.308Z,11.40
2017-05-14T15:44:48.074Z,11.40
2017-05-14T15:47:18.528Z,11.60
2017-05-14T15:49:49.288Z,11.70
2017-05-14T15:52:20.111Z,11.90
2017-05-14T15:54:50.694Z,12.10
2017-05-14T15:57:21.356Z,12.20
2017-05-14T15:59:52.322Z,12.10
2017-05-14T16:02:22.830Z,12.30
2017-05-14T16:04:53.637Z,12.10
2017-05-14T16:07:24.496Z,12.00
2017-05-14T16:09:55.203Z,12.10
2017-05-14T16:12:26.080Z,12.00
2017-05-14T16:14:56.842Z,11.80
2017-05-14T16:17:28.304Z,11.80
2017-05-14T16:19:59.251Z,11.80
2017-05-14T16:22:29.816Z,12.00
2017-05-14T16:25:00.634Z,12.10
2017-05-14T16:27:31.900Z,12.30
2017-05-14T16:30:02.891Z,12.10
2017-05-14T16:32:33.777Z,11.70
2017-05-14T16:35:04.087Z,11.80
2017-05-14T16:37:34.710Z,11.70
2017-05-14T16:40:05.719Z,11.50
2017-05-14T16:42:36.376Z,11.90
2017-05-14T16:45:07.353Z,12.40
2017-05-14T16:47:38.160Z,12.60
2017-05-14T16:50:09.296Z,12.80
2017-05-14T16:52:39.840Z,13.10
2017-05-14T16:55:11.665Z,13.40
2017-05-14T16:57:42.192Z,13.30
2017-05-14T17:00:13.222Z,13.60
2017-05-14T17:02:43.768Z,13.90
2017-05-14T17:05:14.749Z,13.60
2017-05-14T17:07:45.385Z,13.50
2017-05-14T17:10:15.998Z,13.80
2017-05-14T17:12:46.778Z,14.40
2017-05-14T17:15:17.857Z,14.20
2017-05-14T17:17:50.877Z,14.20
2017-05-14T17:20:21.926Z,13.80
2017-05-14T17:22:52.163Z,14.10
2017-05-14T17:25:22.846Z,14.50
2017-05-14T17:27:53.766Z,14.60
2017-05-14T17:30:24.381Z,14.60
2017-05-14T17:32:54.964Z,14.00
2017-05-14T17:35:26.152Z,14.10
2017-05-14T17:37:57.081Z,13.90
2017-05-14T17:40:27.891Z,14.10
2017-05-14T17:42:58.602Z,14.30
2017-05-14T17:45:29.526Z,14.00
2017-05-14T17:48:00.373Z,13.90
2017-05-14T17:50:30.907Z,14.00
2017-05-14T17:53:02.224Z,14.20
2017-05-14T17:55:33.143Z,14.30
2017-05-14T17:58:03.962Z,14.50
2017-05-14T18:00:34.759Z,14.60
2017-05-14T18:03:05.411Z,14.50
2017-05-14T18:05:36.886Z,14.80
2017-05-14T18:08:07.459Z,15.00
2017-05-14T18:10:37.959Z,15.10
2017-05-14T18:13:08.676Z,15.30
2017-05-14T18:15:39.630Z,15.40
2017-05-14T18:18:10.543Z,15.60
2017-05-14T18:20:41.660Z,15.80
2017-05-14T18:23:12.463Z,16.10
2017-05-14T18:25:43.265Z,16.40
2017-05-14T18:28:14.172Z,16.50
2017-05-14T18:30:44.989Z,16.10
2017-05-14T18:33:15.490Z,15.70
2017-05-14T18:35:46.293Z,16.50
2017-05-14T18:38:17.948Z,16.30
2017-05-14T18:40:48.988Z,17.00
2017-05-14T18:43:19.659Z,17.10
2017-05-14T18:45:50.339Z,17.40
2017-05-14T18:48:21.323Z,16.80
2017-05-14T18:50:52.227Z,17.30
2017-05-14T18:53:22.977Z,16.20
2017-05-14T18:55:54.153Z,16.40
2017-05-14T18:58:24.718Z,16.40
2017-05-14T19:00:56.358Z,16.50
2017-05-14T19:03:27.155Z,16.60
2017-05-14T19:05:58.003Z,16.30
2017-05-14T19:08:28.709Z,16.60
2017-05-14T19:10:59.295Z,16.90
2017-05-14T19:13:29.966Z,17.20
2017-05-14T19:16:00.945Z,17.50
2017-05-14T19:18:32.862Z,17.90
2017-05-14T19:21:03.805Z,17.60
2017-05-14T19:23:34.561Z,17.70
2017-05-14T19:26:05.333Z,17.80
2017-05-14T19:28:36.254Z,18.00
2017-05-14T19:31:07.303Z,18.40
2017-05-14T19:33:37.978Z,19.10
2017-05-14T19:36:09.734Z,19.40
2017-05-14T19:38:41.092Z,18.90
2017-05-14T19:41:12.254Z,18.80
2017-05-14T19:43:42.988Z,18.80
2017-05-14T19:46:13.283Z,18.90
2017-05-14T19:48:46.714Z,18.50
2017-05-14T19:51:17.578Z,18.70
2017-05-14T19:53:48.295Z,18.90
2017-05-14T19:56:18.927Z,18.50
2017-05-14T19:58:49.633Z,18.60
2017-05-14T20:01:20.567Z,19.10
2017-05-14T20:03:51.474Z,19.30
2017-05-14T20:06:22.010Z,18.80
2017-05-14T20:08:52.668Z,18.80
2017-05-14T20:11:23.334Z,19.40
2017-05-14T20:13:53.809Z,19.20
2017-05-14T20:16:24.739Z,18.80
2017-05-14T20:18:56.301Z,18.40
2017-05-14T20:21:27.048Z,18.30
2017-05-14T20:23:57.733Z,18.00
2017-05-14T20:26:28.401Z,17.60
2017-05-14T20:28:59.147Z,17.20
2017-05-14T20:31:29.871Z,16.60
2017-05-14T20:34:00.374Z,16.40
2017-05-14T20:36:30.991Z,16.40
2017-05-14T20:39:01.713Z,16.60
2017-05-14T20:41:32.800Z,16.70
2017-05-14T20:44:03.458Z,16.10
2017-05-14T20:46:34.400Z,16.20
2017-05-14T20:49:06.024Z,15.90
2017-05-14T20:51:36.817Z,15.50
2017-05-14T20:54:07.707Z,16.00
2017-05-14T20:56:38.475Z,15.70
2017-05-14T20:59:09.435Z,16.20
2017-05-14T21:01:40.344Z,16.10
2017-05-14T21:04:11.967Z,16.10
2017-05-14T21:06:43.122Z,16.50
2017-05-14T21:09:14.014Z,16.70
2017-05-14T21:11:44.814Z,17.00
2017-05-14T21:14:15.472Z,16.10
2017-05-14T21:16:46.114Z,15.80
2017-05-14T21:19:17.556Z,16.10
2017-05-14T21:21:48.489Z,15.60
2017-05-14T21:24:19.431Z,15.90
2017-05-14T21:26:50.187Z,16.10
2017-05-14T21:29:20.999Z,16.10
2017-05-14T21:31:51.732Z,16.30
2017-05-14T21:34:22.425Z,16.30
2017-05-14T21:36:53.176Z,16.20
2017-05-14T21:39:24.073Z,16.50
2017-05-14T21:41:54.647Z,16.20
2017-05-14T21:44:25.382Z,15.90
2017-05-14T21:46:56.244Z,15.80
2017-05-14T21:49:27.032Z,16.20
2017-05-14T21:51:58.051Z,16.40
2017-05-14T21:54:28.833Z,16.50
2017-05-14T21:57:00.523Z,16.20
2017-05-14T21:59:31.438Z,15.80
2017-05-14T22:02:06.028Z,16.10
2017-05-14T22:04:36.689Z,16.70
2017-05-14T22:07:07.575Z,16.60
2017-05-14T22:09:37.707Z,16.80
2017-05-14T22:12:08.744Z,16.50
2017-05-14T22:14:39.076Z,16.20
2017-05-14T22:17:09.960Z,16.10
2017-05-14T22:19:41.364Z,16.00
2017-05-14T22:22:12.227Z,15.90
2017-05-14T22:24:43.051Z,16.10
2017-05-14T22:27:13.728Z,15.70
2017-05-14T22:29:44.326Z,15.60
2017-05-14T22:32:15.177Z,15.80
2017-05-14T22:34:46.029Z,16.30
2017-05-14T22:37:16.537Z,16.00
2017-05-14T22:39:47.256Z,16.30
2017-05-14T22:42:17.996Z,16.00
2017-05-14T22:44:48.945Z,15.00
2017-05-14T22:47:20.355Z,14.50
2017-05-14T22:49:51.220Z,14.60
2017-05-14T22:52:22.064Z,14.60
2017-05-14T22:54:52.784Z,14.70
2017-05-14T22:57:23.456Z,14.80
2017-05-14T22:59:54.065Z,14.80
2017-05-14T23:02:24.904Z,15.10
2017-05-14T23:04:55.606Z,15.20
2017-05-14T23:07:26.336Z,15.30
2017-05-14T23:09:57.202Z,15.00
2017-05-14T23:12:28.975Z,14.80
2017-05-14T23:14:59.676Z,14.80
2017-05-14T23:17:30.301Z,14.60
2017-05-14T23:20:02.184Z,14.60
2017-05-14T23:22:33.656Z,14.70
2017-05-14T23:25:04.547Z,14.90
2017-05-14T23:27:35.452Z,14.90
2017-05-14T23:30:06.341Z,15.20
2017-05-14T23:32:37.367Z,15.60
2017-05-14T23:35:08.158Z,15.90
2017-05-14T23:37:38.928Z,15.70
2017-05-14T23:40:11.110Z,15.80
2017-05-14T23:42:41.688Z,15.90
2017-05-14T23:45:12.558Z,15.70
2017-05-14T23:47:43.365Z,15.50
2017-05-14T23:50:13.964Z,15.40
2017-05-14T23:52:44.995Z,15.30
2017-05-14T23:55:16.229Z,15.20
2017-05-14T23:57:47.132Z,15.20
